CheckWX is a tool to help pilots better visualize weather data.  It is not intended as a substitute for an official pre-flight weather briefing.

13:45:44 UTC

KMDT TAF
Harrisburg International Airport
Harrisburg, Pennsylvania, USA
KMDT 181148Z 1812/1912 VRB03KT P6SM SCT150 FM181600 17005KT P6SM SCT050 FM181900 20005KT P6SM VCTS BKN050CB FM190000 VRB03KT P6SM SCT100 FM191000 VRB02KT 5SM BR SCT200

Aug-18@
12:00 UTC

Aug-18 @ 12:00 UTC

Aug-18@
16:00 UTC

Aug-18 @ 16:00 UTC

KMDT 181148Z 1812/1912 VRB03KT P6SM SCT150
Wind
  • Variable at 3 KTS
Cloud Levels
  • Scattered at 15,000' AGL

Aug-18@
16:00 UTC

Aug-18 @ 16:00 UTC

Aug-18@
19:00 UTC

Aug-18 @ 19:00 UTC

FM181600 17005KT P6SM SCT050

From

From Standard forecast or significant change

Wind
  • 170° at 5 KTS
Cloud Levels
  • Scattered at 5,000' AGL

Aug-18@
19:00 UTC

Aug-18 @ 19:00 UTC

Aug-19@
00:00 UTC

Aug-19 @ 00:00 UTC

FM181900 20005KT P6SM VCTS BKN050CB

From

From Standard forecast or significant change

Wind
  • 200° at 5 KTS
Conditions
Area Thunderstorm
Cloud Levels
  • Broken at 5,000' AGL

Aug-19@
00:00 UTC

Aug-19 @ 00:00 UTC

Aug-19@
10:00 UTC

Aug-19 @ 10:00 UTC

FM190000 VRB03KT P6SM SCT100

From

From Standard forecast or significant change

Wind
  • Variable at 3 KTS
Cloud Levels
  • Scattered at 10,000' AGL

Aug-19@
10:00 UTC

Aug-19 @ 10:00 UTC

Aug-19@
12:00 UTC

Aug-19 @ 12:00 UTC

FM191000 VRB02KT 5SM BR SCT200

From

From Standard forecast or significant change

Wind
  • Variable at 2 KTS
Conditions
Mist
Cloud Levels
  • Scattered at 20,000' AGL